<?xml version="1.0" encoding="UTF-8" standalone="no" ?>
<gpx xmlns="http://www.topografix.com/GPX/1/1" xmlns:xsi="http://www.w3.org/2001/XMLSchema-instance" xsi:schemaLocation="http://www.topografix.com/GPX/1/1 http://www.topografix.com/GPX/1/1/gpx.xsd" version="1.1" creator="VisuGPX - https://www.visugpx.com">
  <metadata>
    <name>Rando gadoue 19 km</name>
    <desc><![CDATA[Plus d'infos sur www.sentierslangeaisiens.fr]]></desc>
  </metadata>
  <trk>
    <name><![CDATA[20180917145122-Qypiq]]></name>
    <trkseg>
      <trkpt lat="47.32754" lon="0.3985">
        <ele>46.4</ele>
      </trkpt>
      <trkpt lat="47.32771" lon="0.39865">
        <ele>46</ele>
        <time>2018-09-16T19:43:18Z</time>
      </trkpt>
      <trkpt lat="47.32857" lon="0.39748">
        <ele>47</ele>
        <time>2018-09-16T19:44:18Z</time>
      </trkpt>
      <trkpt lat="47.32812" lon="0.39646">
        <ele>46</ele>
        <time>2018-09-16T19:45:18Z</time>
      </trkpt>
      <trkpt lat="47.32778" lon="0.39574">
        <ele>46</ele>
        <time>2018-09-16T19:46:18Z</time>
      </trkpt>
      <trkpt lat="47.32757" lon="0.39457">
        <ele>47</ele>
        <time>2018-09-16T19:47:18Z</time>
      </trkpt>
      <trkpt lat="47.32778" lon="0.3936">
        <ele>47</ele>
        <time>2018-09-16T19:48:18Z</time>
      </trkpt>
      <trkpt lat="47.32888" lon="0.39283">
        <ele>50</ele>
        <time>2018-09-16T19:49:18Z</time>
      </trkpt>
      <trkpt lat="47.32968" lon="0.39212">
        <ele>53</ele>
        <time>2018-09-16T19:50:18Z</time>
      </trkpt>
      <trkpt lat="47.33023" lon="0.39125">
        <ele>56</ele>
        <time>2018-09-16T19:51:18Z</time>
      </trkpt>
      <trkpt lat="47.33068" lon="0.38987">
        <ele>50</ele>
        <time>2018-09-16T19:52:18Z</time>
      </trkpt>
      <trkpt lat="47.33155" lon="0.38962">
        <ele>64</ele>
        <time>2018-09-16T19:53:18Z</time>
      </trkpt>
      <trkpt lat="47.33286" lon="0.38926">
        <ele>76</ele>
        <time>2018-09-16T19:54:18Z</time>
      </trkpt>
      <trkpt lat="47.33404" lon="0.38809">
        <ele>88</ele>
        <time>2018-09-16T19:55:18Z</time>
      </trkpt>
      <trkpt lat="47.3347" lon="0.38707">
        <ele>92</ele>
        <time>2018-09-16T19:56:18Z</time>
      </trkpt>
      <trkpt lat="47.33535" lon="0.38671">
        <ele>93</ele>
        <time>2018-09-16T19:57:18Z</time>
      </trkpt>
      <trkpt lat="47.33504" lon="0.38533">
        <ele>94</ele>
        <time>2018-09-16T19:58:18Z</time>
      </trkpt>
      <trkpt lat="47.33483" lon="0.38523">
        <ele>94</ele>
        <time>2018-09-16T19:59:18Z</time>
      </trkpt>
      <trkpt lat="47.3349" lon="0.38436">
        <ele>94</ele>
        <time>2018-09-16T20:00:18Z</time>
      </trkpt>
      <trkpt lat="47.3357" lon="0.38324">
        <ele>94</ele>
        <time>2018-09-16T20:01:18Z</time>
      </trkpt>
      <trkpt lat="47.33687" lon="0.38309">
        <ele>94</ele>
        <time>2018-09-16T20:02:18Z</time>
      </trkpt>
      <trkpt lat="47.33833" lon="0.38207">
        <ele>91</ele>
        <time>2018-09-16T20:03:18Z</time>
      </trkpt>
      <trkpt lat="47.33936" lon="0.3811">
        <ele>94</ele>
        <time>2018-09-16T20:04:18Z</time>
      </trkpt>
      <trkpt lat="47.33974" lon="0.38268">
        <ele>93</ele>
        <time>2018-09-16T20:05:18Z</time>
      </trkpt>
      <trkpt lat="47.33885" lon="0.38594">
        <ele>84</ele>
        <time>2018-09-16T20:06:18Z</time>
      </trkpt>
      <trkpt lat="47.33846" lon="0.38681">
        <ele>82</ele>
        <time>2018-09-16T20:07:18Z</time>
      </trkpt>
      <trkpt lat="47.33781" lon="0.38819">
        <ele>85</ele>
        <time>2018-09-16T20:08:18Z</time>
      </trkpt>
      <trkpt lat="47.33684" lon="0.38916">
        <ele>79</ele>
        <time>2018-09-16T20:09:18Z</time>
      </trkpt>
      <trkpt lat="47.33608" lon="0.38952">
        <ele>79</ele>
        <time>2018-09-16T20:10:18Z</time>
      </trkpt>
      <trkpt lat="47.33518" lon="0.38977">
        <ele>80</ele>
        <time>2018-09-16T20:11:18Z</time>
      </trkpt>
      <trkpt lat="47.33411" lon="0.39095">
        <ele>77</ele>
        <time>2018-09-16T20:12:18Z</time>
      </trkpt>
      <trkpt lat="47.33307" lon="0.39181">
        <ele>83</ele>
        <time>2018-09-16T20:13:18Z</time>
      </trkpt>
      <trkpt lat="47.33359" lon="0.39324">
        <ele>87</ele>
        <time>2018-09-16T20:14:18Z</time>
      </trkpt>
      <trkpt lat="47.33435" lon="0.39457">
        <ele>90</ele>
        <time>2018-09-16T20:15:18Z</time>
      </trkpt>
      <trkpt lat="47.33535" lon="0.39401">
        <ele>91</ele>
        <time>2018-09-16T20:16:18Z</time>
      </trkpt>
      <trkpt lat="47.33642" lon="0.3936">
        <ele>91</ele>
        <time>2018-09-16T20:17:18Z</time>
      </trkpt>
      <trkpt lat="47.33874" lon="0.39248">
        <ele>99</ele>
        <time>2018-09-16T20:18:18Z</time>
      </trkpt>
      <trkpt lat="47.33923" lon="0.39503">
        <ele>96</ele>
        <time>2018-09-16T20:19:18Z</time>
      </trkpt>
      <trkpt lat="47.33954" lon="0.39702">
        <ele>95</ele>
        <time>2018-09-16T20:20:18Z</time>
      </trkpt>
      <trkpt lat="47.33881" lon="0.39789">
        <ele>95</ele>
        <time>2018-09-16T20:21:18Z</time>
      </trkpt>
      <trkpt lat="47.3377" lon="0.39891">
        <ele>90</ele>
        <time>2018-09-16T20:22:18Z</time>
      </trkpt>
      <trkpt lat="47.33777" lon="0.39967">
        <ele>90</ele>
        <time>2018-09-16T20:23:18Z</time>
      </trkpt>
      <trkpt lat="47.33639" lon="0.40064">
        <ele>89</ele>
        <time>2018-09-16T20:24:18Z</time>
      </trkpt>
      <trkpt lat="47.33559" lon="0.40115">
        <ele>91</ele>
        <time>2018-09-16T20:25:18Z</time>
      </trkpt>
      <trkpt lat="47.33483" lon="0.40161">
        <ele>92</ele>
        <time>2018-09-16T20:26:18Z</time>
      </trkpt>
      <trkpt lat="47.33376" lon="0.40258">
        <ele>90</ele>
        <time>2018-09-16T20:27:18Z</time>
      </trkpt>
      <trkpt lat="47.33224" lon="0.4033">
        <ele>87</ele>
        <time>2018-09-16T20:28:18Z</time>
      </trkpt>
      <trkpt lat="47.33217" lon="0.40335">
        <ele>87</ele>
        <time>2018-09-16T20:29:18Z</time>
      </trkpt>
      <trkpt lat="47.33283" lon="0.40554">
        <ele>88</ele>
        <time>2018-09-16T20:30:18Z</time>
      </trkpt>
      <trkpt lat="47.334" lon="0.40544">
        <ele>90</ele>
        <time>2018-09-16T20:31:18Z</time>
      </trkpt>
      <trkpt lat="47.33535" lon="0.40534">
        <ele>92</ele>
        <time>2018-09-16T20:32:18Z</time>
      </trkpt>
      <trkpt lat="47.33622" lon="0.40467">
        <ele>91</ele>
        <time>2018-09-16T20:33:18Z</time>
      </trkpt>
      <trkpt lat="47.3375" lon="0.40411">
        <ele>90</ele>
        <time>2018-09-16T20:34:18Z</time>
      </trkpt>
      <trkpt lat="47.33871" lon="0.40335">
        <ele>90</ele>
        <time>2018-09-16T20:35:18Z</time>
      </trkpt>
      <trkpt lat="47.34064" lon="0.4037">
        <ele>98</ele>
        <time>2018-09-16T20:36:18Z</time>
      </trkpt>
      <trkpt lat="47.34234" lon="0.40381">
        <ele>102</ele>
        <time>2018-09-16T20:37:18Z</time>
      </trkpt>
      <trkpt lat="47.34165" lon="0.40646">
        <ele>99</ele>
        <time>2018-09-16T20:38:18Z</time>
      </trkpt>
      <trkpt lat="47.34213" lon="0.40855">
        <ele>101</ele>
        <time>2018-09-16T20:39:18Z</time>
      </trkpt>
      <trkpt lat="47.34317" lon="0.41064">
        <ele>99</ele>
        <time>2018-09-16T20:40:18Z</time>
      </trkpt>
      <trkpt lat="47.34362" lon="0.4136">
        <ele>101</ele>
        <time>2018-09-16T20:41:18Z</time>
      </trkpt>
      <trkpt lat="47.34313" lon="0.4159">
        <ele>99</ele>
        <time>2018-09-16T20:42:18Z</time>
      </trkpt>
      <trkpt lat="47.34237" lon="0.41621">
        <ele>96</ele>
        <time>2018-09-16T20:43:18Z</time>
      </trkpt>
      <trkpt lat="47.34151" lon="0.41927">
        <ele>84</ele>
        <time>2018-09-16T20:44:18Z</time>
      </trkpt>
      <trkpt lat="47.34144" lon="0.42029">
        <ele>81</ele>
        <time>2018-09-16T20:45:18Z</time>
      </trkpt>
      <trkpt lat="47.3414" lon="0.42187">
        <ele>79</ele>
        <time>2018-09-16T20:46:18Z</time>
      </trkpt>
      <trkpt lat="47.34227" lon="0.42218">
        <ele>82</ele>
        <time>2018-09-16T20:47:18Z</time>
      </trkpt>
      <trkpt lat="47.34289" lon="0.4208">
        <ele>84</ele>
        <time>2018-09-16T20:48:18Z</time>
      </trkpt>
      <trkpt lat="47.34396" lon="0.41794">
        <ele>95</ele>
        <time>2018-09-16T20:49:18Z</time>
      </trkpt>
      <trkpt lat="47.34531" lon="0.41687">
        <ele>101</ele>
        <time>2018-09-16T20:50:18Z</time>
      </trkpt>
      <trkpt lat="47.34721" lon="0.41534">
        <ele>88</ele>
        <time>2018-09-16T20:51:18Z</time>
      </trkpt>
      <trkpt lat="47.3477" lon="0.41391">
        <ele>90</ele>
        <time>2018-09-16T20:52:18Z</time>
      </trkpt>
      <trkpt lat="47.3486" lon="0.4132">
        <ele>86</ele>
        <time>2018-09-16T20:53:18Z</time>
      </trkpt>
      <trkpt lat="47.34984" lon="0.41315">
        <ele>91</ele>
        <time>2018-09-16T20:54:18Z</time>
      </trkpt>
      <trkpt lat="47.35119" lon="0.41228">
        <ele>95</ele>
        <time>2018-09-16T20:55:18Z</time>
      </trkpt>
      <trkpt lat="47.35196" lon="0.41142">
        <ele>96</ele>
      </trkpt>
      <trkpt lat="47.35221" lon="0.41115">
        <ele>96.4</ele>
      </trkpt>
      <trkpt lat="47.35285" lon="0.41122">
        <ele>96.7</ele>
      </trkpt>
      <trkpt lat="47.35248" lon="0.41222">
        <ele>93.9</ele>
      </trkpt>
      <trkpt lat="47.35359" lon="0.41342">
        <ele>90.6</ele>
      </trkpt>
      <trkpt lat="47.35463" lon="0.41454">
        <ele>89.4</ele>
      </trkpt>
      <trkpt lat="47.3554" lon="0.41731">
        <ele>83.3</ele>
      </trkpt>
      <trkpt lat="47.35636" lon="0.41819">
        <ele>79.2</ele>
      </trkpt>
      <trkpt lat="47.35716" lon="0.41844">
        <ele>84.2</ele>
      </trkpt>
      <trkpt lat="47.35795" lon="0.41895">
        <ele>92.9</ele>
      </trkpt>
      <trkpt lat="47.35971" lon="0.41994">
        <ele>96.4</ele>
      </trkpt>
      <trkpt lat="47.36013" lon="0.41828">
        <ele>96.8</ele>
      </trkpt>
      <trkpt lat="47.361" lon="0.41612">
        <ele>96.4</ele>
      </trkpt>
      <trkpt lat="47.36196" lon="0.41419">
        <ele>100</ele>
      </trkpt>
      <trkpt lat="47.36194" lon="0.41418">
        <ele>100</ele>
      </trkpt>
      <trkpt lat="47.36194" lon="0.41418">
        <ele>100</ele>
      </trkpt>
      <trkpt lat="47.36196" lon="0.41406">
        <ele>102.5</ele>
      </trkpt>
      <trkpt lat="47.36195" lon="0.41399">
        <ele>102.6</ele>
      </trkpt>
      <trkpt lat="47.36232" lon="0.41404">
        <ele>102.3</ele>
      </trkpt>
      <trkpt lat="47.36246" lon="0.41334">
        <ele>104.7</ele>
      </trkpt>
      <trkpt lat="47.36251" lon="0.41277">
        <ele>105.1</ele>
      </trkpt>
      <trkpt lat="47.36257" lon="0.41244">
        <ele>105.9</ele>
      </trkpt>
      <trkpt lat="47.36266" lon="0.41205">
        <ele>106</ele>
      </trkpt>
      <trkpt lat="47.3628" lon="0.41144">
        <ele>105.6</ele>
      </trkpt>
      <trkpt lat="47.36292" lon="0.40997">
        <ele>98.2</ele>
      </trkpt>
      <trkpt lat="47.36294" lon="0.40999">
        <ele>98.3</ele>
      </trkpt>
      <trkpt lat="47.36295" lon="0.40997">
        <ele>98.3</ele>
      </trkpt>
      <trkpt lat="47.36298" lon="0.40981">
        <ele>98.2</ele>
      </trkpt>
      <trkpt lat="47.36298" lon="0.40933">
        <ele>97.1</ele>
      </trkpt>
      <trkpt lat="47.363" lon="0.40923">
        <ele>97</ele>
      </trkpt>
      <trkpt lat="47.36304" lon="0.40917">
        <ele>97</ele>
      </trkpt>
      <trkpt lat="47.36307" lon="0.40908">
        <ele>95.9</ele>
      </trkpt>
      <trkpt lat="47.36306" lon="0.40841">
        <ele>95.9</ele>
      </trkpt>
      <trkpt lat="47.36308" lon="0.40789">
        <ele>96.3</ele>
      </trkpt>
      <trkpt lat="47.36316" lon="0.40734">
        <ele>98.8</ele>
      </trkpt>
      <trkpt lat="47.36325" lon="0.40689">
        <ele>101</ele>
      </trkpt>
      <trkpt lat="47.36327" lon="0.40678">
        <ele>102.1</ele>
      </trkpt>
      <trkpt lat="47.3633" lon="0.40659">
        <ele>103.7</ele>
      </trkpt>
      <trkpt lat="47.36331" lon="0.40634">
        <ele>103.7</ele>
      </trkpt>
      <trkpt lat="47.36336" lon="0.40495">
        <ele>104.3</ele>
      </trkpt>
      <trkpt lat="47.36336" lon="0.40467">
        <ele>104.8</ele>
      </trkpt>
      <trkpt lat="47.36335" lon="0.40456">
        <ele>104.8</ele>
      </trkpt>
      <trkpt lat="47.36336" lon="0.40467">
        <ele>104.8</ele>
      </trkpt>
      <trkpt lat="47.3633" lon="0.40455">
        <ele>102.4</ele>
      </trkpt>
      <trkpt lat="47.36277" lon="0.4041">
        <ele>100.7</ele>
      </trkpt>
      <trkpt lat="47.36176" lon="0.40325">
        <ele>95</ele>
      </trkpt>
      <trkpt lat="47.36162" lon="0.40313">
        <ele>93.2</ele>
      </trkpt>
      <trkpt lat="47.36105" lon="0.40263">
        <ele>93.1</ele>
      </trkpt>
      <trkpt lat="47.36051" lon="0.40209">
        <ele>92.5</ele>
      </trkpt>
      <trkpt lat="47.36029" lon="0.4021">
        <ele>91.9</ele>
      </trkpt>
      <trkpt lat="47.36024" lon="0.4021">
        <ele>91.8</ele>
      </trkpt>
      <trkpt lat="47.36012" lon="0.40213">
        <ele>91.5</ele>
      </trkpt>
      <trkpt lat="47.36003" lon="0.40218">
        <ele>91.2</ele>
      </trkpt>
      <trkpt lat="47.35998" lon="0.40223">
        <ele>87.6</ele>
      </trkpt>
      <trkpt lat="47.35995" lon="0.4023">
        <ele>87.7</ele>
      </trkpt>
      <trkpt lat="47.35993" lon="0.4024">
        <ele>88</ele>
      </trkpt>
      <trkpt lat="47.35992" lon="0.40257">
        <ele>87.6</ele>
      </trkpt>
      <trkpt lat="47.35993" lon="0.4026">
        <ele>87.3</ele>
      </trkpt>
      <trkpt lat="47.35995" lon="0.40275">
        <ele>86.3</ele>
      </trkpt>
      <trkpt lat="47.35996" lon="0.40288">
        <ele>85.7</ele>
      </trkpt>
      <trkpt lat="47.35997" lon="0.40304">
        <ele>85.1</ele>
      </trkpt>
      <trkpt lat="47.35996" lon="0.40315">
        <ele>84.7</ele>
      </trkpt>
      <trkpt lat="47.35994" lon="0.40323">
        <ele>84.5</ele>
      </trkpt>
      <trkpt lat="47.35991" lon="0.40328">
        <ele>84.4</ele>
      </trkpt>
      <trkpt lat="47.35984" lon="0.40336">
        <ele>83.8</ele>
      </trkpt>
      <trkpt lat="47.35969" lon="0.40348">
        <ele>83.8</ele>
      </trkpt>
      <trkpt lat="47.35931" lon="0.40374">
        <ele>84</ele>
      </trkpt>
      <trkpt lat="47.35925" lon="0.40378">
        <ele>84</ele>
      </trkpt>
      <trkpt lat="47.35923" lon="0.40379">
        <ele>84</ele>
      </trkpt>
      <trkpt lat="47.35908" lon="0.4039">
        <ele>84.5</ele>
      </trkpt>
      <trkpt lat="47.35901" lon="0.40394">
        <ele>84.5</ele>
      </trkpt>
      <trkpt lat="47.35901" lon="0.40395">
        <ele>84.5</ele>
      </trkpt>
      <trkpt lat="47.35898" lon="0.40397">
        <ele>84.5</ele>
      </trkpt>
      <trkpt lat="47.35896" lon="0.40399">
        <ele>84.5</ele>
      </trkpt>
      <trkpt lat="47.35875" lon="0.40414">
        <ele>84.5</ele>
      </trkpt>
      <trkpt lat="47.35863" lon="0.40422">
        <ele>85.8</ele>
      </trkpt>
      <trkpt lat="47.35831" lon="0.40445">
        <ele>89.1</ele>
      </trkpt>
      <trkpt lat="47.35822" lon="0.40451">
        <ele>89.7</ele>
      </trkpt>
      <trkpt lat="47.35797" lon="0.40467">
        <ele>91.3</ele>
      </trkpt>
      <trkpt lat="47.35794" lon="0.40469">
        <ele>91.5</ele>
      </trkpt>
      <trkpt lat="47.35772" lon="0.40481">
        <ele>93.3</ele>
      </trkpt>
      <trkpt lat="47.3574" lon="0.40493">
        <ele>97.4</ele>
      </trkpt>
      <trkpt lat="47.35722" lon="0.40498">
        <ele>97.3</ele>
      </trkpt>
      <trkpt lat="47.3571" lon="0.40497">
        <ele>97.4</ele>
      </trkpt>
      <trkpt lat="47.35689" lon="0.40491">
        <ele>97.9</ele>
      </trkpt>
      <trkpt lat="47.3567" lon="0.40484">
        <ele>98.4</ele>
      </trkpt>
      <trkpt lat="47.35659" lon="0.40478">
        <ele>98.8</ele>
      </trkpt>
      <trkpt lat="47.35653" lon="0.40472">
        <ele>98.5</ele>
      </trkpt>
      <trkpt lat="47.3565" lon="0.40469">
        <ele>98.4</ele>
      </trkpt>
      <trkpt lat="47.35643" lon="0.40458">
        <ele>98.2</ele>
      </trkpt>
      <trkpt lat="47.3564" lon="0.40452">
        <ele>98.1</ele>
      </trkpt>
      <trkpt lat="47.35624" lon="0.40421">
        <ele>98</ele>
      </trkpt>
      <trkpt lat="47.35612" lon="0.40403">
        <ele>96.9</ele>
      </trkpt>
      <trkpt lat="47.35602" lon="0.40391">
        <ele>97.1</ele>
      </trkpt>
      <trkpt lat="47.35577" lon="0.40369">
        <ele>100</ele>
      </trkpt>
      <trkpt lat="47.35563" lon="0.40362">
        <ele>100.1</ele>
      </trkpt>
      <trkpt lat="47.3555" lon="0.4036">
        <ele>100.2</ele>
      </trkpt>
      <trkpt lat="47.35538" lon="0.4036">
        <ele>100.2</ele>
      </trkpt>
      <trkpt lat="47.35519" lon="0.4037">
        <ele>100.4</ele>
      </trkpt>
      <trkpt lat="47.3551" lon="0.40378">
        <ele>100.5</ele>
      </trkpt>
      <trkpt lat="47.35497" lon="0.4039">
        <ele>101.7</ele>
      </trkpt>
      <trkpt lat="47.35467" lon="0.40425">
        <ele>101.9</ele>
      </trkpt>
      <trkpt lat="47.35434" lon="0.40452">
        <ele>102.1</ele>
      </trkpt>
      <trkpt lat="47.35434" lon="0.40452">
        <ele>103</ele>
        <time>2018-09-16T21:30:18Z</time>
      </trkpt>
      <trkpt lat="47.35434" lon="0.40452">
        <ele>103</ele>
        <time>2018-09-16T21:30:18Z</time>
      </trkpt>
      <trkpt lat="47.35299" lon="0.40534">
        <ele>101</ele>
        <time>2018-09-16T21:31:18Z</time>
      </trkpt>
      <trkpt lat="47.3514" lon="0.40575">
        <ele>99</ele>
        <time>2018-09-16T21:32:18Z</time>
      </trkpt>
      <trkpt lat="47.34998" lon="0.40513">
        <ele>101</ele>
        <time>2018-09-16T21:33:18Z</time>
      </trkpt>
      <trkpt lat="47.34957" lon="0.40508">
        <ele>100</ele>
        <time>2018-09-16T21:34:18Z</time>
      </trkpt>
      <trkpt lat="47.34818" lon="0.40524">
        <ele>101</ele>
        <time>2018-09-16T21:35:18Z</time>
      </trkpt>
      <trkpt lat="47.34621" lon="0.40513">
        <ele>103</ele>
        <time>2018-09-16T21:36:18Z</time>
      </trkpt>
      <trkpt lat="47.3451" lon="0.40518">
        <ele>104</ele>
        <time>2018-09-16T21:37:18Z</time>
      </trkpt>
      <trkpt lat="47.34386" lon="0.40595">
        <ele>104</ele>
        <time>2018-09-16T21:38:18Z</time>
      </trkpt>
      <trkpt lat="47.343" lon="0.40626">
        <ele>103</ele>
        <time>2018-09-16T21:39:18Z</time>
      </trkpt>
      <trkpt lat="47.34185" lon="0.40672">
        <ele>100</ele>
        <time>2018-09-16T21:40:18Z</time>
      </trkpt>
      <trkpt lat="47.34306" lon="0.41054">
        <ele>98</ele>
        <time>2018-09-16T21:41:18Z</time>
      </trkpt>
      <trkpt lat="47.34379" lon="0.4136">
        <ele>101</ele>
        <time>2018-09-16T21:42:18Z</time>
      </trkpt>
      <trkpt lat="47.34334" lon="0.41549">
        <ele>100</ele>
        <time>2018-09-16T21:43:18Z</time>
      </trkpt>
      <trkpt lat="47.34251" lon="0.41616">
        <ele>98</ele>
        <time>2018-09-16T21:44:18Z</time>
      </trkpt>
      <trkpt lat="47.34203" lon="0.41759">
        <ele>88</ele>
        <time>2018-09-16T21:45:18Z</time>
      </trkpt>
      <trkpt lat="47.3413" lon="0.41687">
        <ele>87</ele>
        <time>2018-09-16T21:46:18Z</time>
      </trkpt>
      <trkpt lat="47.3404" lon="0.41631">
        <ele>87</ele>
        <time>2018-09-16T21:47:18Z</time>
      </trkpt>
      <trkpt lat="47.3386" lon="0.41621">
        <ele>86</ele>
        <time>2018-09-16T21:48:18Z</time>
      </trkpt>
      <trkpt lat="47.33736" lon="0.41621">
        <ele>87</ele>
        <time>2018-09-16T21:49:18Z</time>
      </trkpt>
      <trkpt lat="47.33597" lon="0.4159">
        <ele>91</ele>
        <time>2018-09-16T21:50:18Z</time>
      </trkpt>
      <trkpt lat="47.33521" lon="0.41544">
        <ele>92</ele>
        <time>2018-09-16T21:51:18Z</time>
      </trkpt>
      <trkpt lat="47.33442" lon="0.41514">
        <ele>91</ele>
        <time>2018-09-16T21:52:18Z</time>
      </trkpt>
      <trkpt lat="47.33348" lon="0.41503">
        <ele>89</ele>
        <time>2018-09-16T21:53:18Z</time>
      </trkpt>
      <trkpt lat="47.33276" lon="0.41447">
        <ele>89</ele>
        <time>2018-09-16T21:54:18Z</time>
      </trkpt>
      <trkpt lat="47.33193" lon="0.41391">
        <ele>88</ele>
        <time>2018-09-16T21:55:18Z</time>
      </trkpt>
      <trkpt lat="47.33099" lon="0.41335">
        <ele>86</ele>
        <time>2018-09-16T21:56:18Z</time>
      </trkpt>
      <trkpt lat="47.33065" lon="0.41292">
        <ele>84</ele>
        <time>2018-09-16T21:57:18Z</time>
      </trkpt>
      <trkpt lat="47.3301" lon="0.41262">
        <ele>81</ele>
        <time>2018-09-16T21:58:18Z</time>
      </trkpt>
      <trkpt lat="47.32946" lon="0.41205">
        <ele>75</ele>
        <time>2018-09-16T21:59:18Z</time>
      </trkpt>
      <trkpt lat="47.32925" lon="0.41186">
        <ele>74</ele>
        <time>2018-09-16T22:00:18Z</time>
      </trkpt>
      <trkpt lat="47.32907" lon="0.41166">
        <ele>71</ele>
        <time>2018-09-16T22:01:18Z</time>
      </trkpt>
      <trkpt lat="47.32891" lon="0.41151">
        <ele>68</ele>
        <time>2018-09-16T22:02:18Z</time>
      </trkpt>
      <trkpt lat="47.32875" lon="0.41121">
        <ele>65</ele>
        <time>2018-09-16T22:03:18Z</time>
      </trkpt>
      <trkpt lat="47.32869" lon="0.41092">
        <ele>64</ele>
        <time>2018-09-16T22:04:18Z</time>
      </trkpt>
      <trkpt lat="47.32865" lon="0.41051">
        <ele>64</ele>
        <time>2018-09-16T22:05:18Z</time>
      </trkpt>
      <trkpt lat="47.32869" lon="0.41037">
        <ele>64</ele>
        <time>2018-09-16T22:06:18Z</time>
      </trkpt>
      <trkpt lat="47.32856" lon="0.41015">
        <ele>63</ele>
        <time>2018-09-16T22:07:18Z</time>
      </trkpt>
      <trkpt lat="47.32846" lon="0.4099">
        <ele>62</ele>
        <time>2018-09-16T22:08:18Z</time>
      </trkpt>
      <trkpt lat="47.3283" lon="0.40944">
        <ele>59</ele>
        <time>2018-09-16T22:09:18Z</time>
      </trkpt>
      <trkpt lat="47.32815" lon="0.40906">
        <ele>58</ele>
        <time>2018-09-16T22:10:18Z</time>
      </trkpt>
      <trkpt lat="47.32797" lon="0.40867">
        <ele>58</ele>
        <time>2018-09-16T22:11:18Z</time>
      </trkpt>
      <trkpt lat="47.32787" lon="0.40853">
        <ele>57</ele>
        <time>2018-09-16T22:12:18Z</time>
      </trkpt>
      <trkpt lat="47.32757" lon="0.40829">
        <ele>53</ele>
        <time>2018-09-16T22:13:18Z</time>
      </trkpt>
      <trkpt lat="47.32749" lon="0.40827">
        <ele>53</ele>
        <time>2018-09-16T22:14:18Z</time>
      </trkpt>
      <trkpt lat="47.3274" lon="0.40809">
        <ele>53</ele>
        <time>2018-09-16T22:15:18Z</time>
      </trkpt>
      <trkpt lat="47.32777" lon="0.40793">
        <ele>60</ele>
        <time>2018-09-16T22:16:18Z</time>
      </trkpt>
      <trkpt lat="47.32811" lon="0.40807">
        <ele>63</ele>
        <time>2018-09-16T22:17:18Z</time>
      </trkpt>
      <trkpt lat="47.32845" lon="0.40814">
        <ele>67</ele>
        <time>2018-09-16T22:18:18Z</time>
      </trkpt>
      <trkpt lat="47.32868" lon="0.40796">
        <ele>73</ele>
        <time>2018-09-16T22:19:18Z</time>
      </trkpt>
      <trkpt lat="47.32877" lon="0.40773">
        <ele>77</ele>
        <time>2018-09-16T22:20:18Z</time>
      </trkpt>
      <trkpt lat="47.32881" lon="0.40754">
        <ele>79</ele>
        <time>2018-09-16T22:21:18Z</time>
      </trkpt>
      <trkpt lat="47.32889" lon="0.40733">
        <ele>81</ele>
        <time>2018-09-16T22:22:18Z</time>
      </trkpt>
      <trkpt lat="47.32909" lon="0.40712">
        <ele>85</ele>
        <time>2018-09-16T22:23:18Z</time>
      </trkpt>
      <trkpt lat="47.32881" lon="0.40719">
        <ele>82</ele>
        <time>2018-09-16T22:24:18Z</time>
      </trkpt>
      <trkpt lat="47.32856" lon="0.40733">
        <ele>78</ele>
        <time>2018-09-16T22:25:18Z</time>
      </trkpt>
      <trkpt lat="47.32817" lon="0.40713">
        <ele>75</ele>
        <time>2018-09-16T22:26:18Z</time>
      </trkpt>
      <trkpt lat="47.32797" lon="0.40676">
        <ele>75</ele>
        <time>2018-09-16T22:27:18Z</time>
      </trkpt>
      <trkpt lat="47.32779" lon="0.40647">
        <ele>75</ele>
        <time>2018-09-16T22:28:18Z</time>
      </trkpt>
      <trkpt lat="47.32766" lon="0.40602">
        <ele>76</ele>
        <time>2018-09-16T22:29:18Z</time>
      </trkpt>
      <trkpt lat="47.32755" lon="0.40576">
        <ele>75</ele>
        <time>2018-09-16T22:30:18Z</time>
      </trkpt>
      <trkpt lat="47.32745" lon="0.40533">
        <ele>74</ele>
        <time>2018-09-16T22:31:18Z</time>
      </trkpt>
      <trkpt lat="47.32736" lon="0.40448">
        <ele>71</ele>
        <time>2018-09-16T22:32:18Z</time>
      </trkpt>
      <trkpt lat="47.32729" lon="0.40404">
        <ele>69</ele>
        <time>2018-09-16T22:33:18Z</time>
      </trkpt>
      <trkpt lat="47.32725" lon="0.40377">
        <ele>68</ele>
        <time>2018-09-16T22:34:18Z</time>
      </trkpt>
      <trkpt lat="47.32711" lon="0.40362">
        <ele>66</ele>
        <time>2018-09-16T22:35:18Z</time>
      </trkpt>
      <trkpt lat="47.32692" lon="0.40349">
        <ele>63</ele>
        <time>2018-09-16T22:36:18Z</time>
      </trkpt>
      <trkpt lat="47.32671" lon="0.4033">
        <ele>60</ele>
        <time>2018-09-16T22:37:18Z</time>
      </trkpt>
      <trkpt lat="47.32653" lon="0.40291">
        <ele>57</ele>
        <time>2018-09-16T22:38:18Z</time>
      </trkpt>
      <trkpt lat="47.32608" lon="0.40302">
        <ele>51</ele>
        <time>2018-09-16T22:39:18Z</time>
      </trkpt>
      <trkpt lat="47.32624" lon="0.40256">
        <ele>53</ele>
        <time>2018-09-16T22:40:18Z</time>
      </trkpt>
      <trkpt lat="47.3265" lon="0.4022">
        <ele>54</ele>
        <time>2018-09-16T22:41:18Z</time>
      </trkpt>
      <trkpt lat="47.32672" lon="0.40196">
        <ele>55</ele>
        <time>2018-09-16T22:42:18Z</time>
      </trkpt>
      <trkpt lat="47.32701" lon="0.40163">
        <ele>55</ele>
        <time>2018-09-16T22:43:18Z</time>
      </trkpt>
      <trkpt lat="47.32722" lon="0.40155">
        <ele>56</ele>
        <time>2018-09-16T22:44:18Z</time>
      </trkpt>
      <trkpt lat="47.32747" lon="0.40131">
        <ele>55</ele>
        <time>2018-09-16T22:45:18Z</time>
      </trkpt>
      <trkpt lat="47.32798" lon="0.40101">
        <ele>57</ele>
        <time>2018-09-16T22:46:18Z</time>
      </trkpt>
      <trkpt lat="47.32825" lon="0.40058">
        <ele>56</ele>
        <time>2018-09-16T22:47:18Z</time>
      </trkpt>
      <trkpt lat="47.32853" lon="0.40027">
        <ele>57</ele>
        <time>2018-09-16T22:48:18Z</time>
      </trkpt>
      <trkpt lat="47.32874" lon="0.39959">
        <ele>56</ele>
        <time>2018-09-16T22:49:18Z</time>
      </trkpt>
      <trkpt lat="47.32888" lon="0.39903">
        <ele>55</ele>
        <time>2018-09-16T22:50:18Z</time>
      </trkpt>
      <trkpt lat="47.32888" lon="0.39868">
        <ele>54</ele>
        <time>2018-09-16T22:51:18Z</time>
      </trkpt>
      <trkpt lat="47.32881" lon="0.3983">
        <ele>51</ele>
        <time>2018-09-16T22:52:18Z</time>
      </trkpt>
      <trkpt lat="47.32871" lon="0.39792">
        <ele>49</ele>
        <time>2018-09-16T22:53:18Z</time>
      </trkpt>
      <trkpt lat="47.32865" lon="0.39756">
        <ele>48</ele>
        <time>2018-09-16T22:54:18Z</time>
      </trkpt>
      <trkpt lat="47.32847" lon="0.3977">
        <ele>46</ele>
        <time>2018-09-16T22:55:18Z</time>
      </trkpt>
      <trkpt lat="47.32759" lon="0.39844">
        <ele>46.5</ele>
      </trkpt>
    </trkseg>
  </trk>
</gpx>